sensor_id;sensor_type;location;lat;lon;timestamp;P1;durP1;ratioP1;P2;durP2;ratioP2
27543;SDS011;17996;51.056;3.656;2023-05-23T00:01:41;81.35;;;34.33;;
27543;SDS011;17996;51.056;3.656;2023-05-23T00:04:09;74.95;;;33.45;;
27543;SDS011;17996;51.056;3.656;2023-05-23T00:06:41;69.82;;;33.17;;
27543;SDS011;17996;51.056;3.656;2023-05-23T00:09:14;76.88;;;32.92;;
27543;SDS011;17996;51.056;3.656;2023-05-23T00:11:41;94.30;;;35.47;;
27543;SDS011;17996;51.056;3.656;2023-05-23T00:14:15;89.78;;;33.45;;
27543;SDS011;17996;51.056;3.656;2023-05-23T00:16:42;81.43;;;34.80;;
27543;SDS011;17996;51.056;3.656;2023-05-23T00:19:11;79.57;;;34.63;;
27543;SDS011;17996;51.056;3.656;2023-05-23T00:21:40;75.50;;;31.25;;
27543;SDS011;17996;51.056;3.656;2023-05-23T00:24:07;79.00;;;30.38;;
27543;SDS011;17996;51.056;3.656;2023-05-23T00:26:34;79.00;;;32.10;;
27543;SDS011;17996;51.056;3.656;2023-05-23T00:29:00;60.67;;;27.63;;
27543;SDS011;17996;51.056;3.656;2023-05-23T00:31:26;53.45;;;27.55;;
27543;SDS011;17996;51.056;3.656;2023-05-23T00:33:51;52.25;;;27.15;;
27543;SDS011;17996;51.056;3.656;2023-05-23T00:36:17;48.47;;;25.10;;
27543;SDS011;17996;51.056;3.656;2023-05-23T00:38:43;56.38;;;25.50;;
27543;SDS011;17996;51.056;3.656;2023-05-23T00:41:12;59.55;;;25.35;;
27543;SDS011;17996;51.056;3.656;2023-05-23T00:43:37;48.63;;;23.48;;
27543;SDS011;17996;51.056;3.656;2023-05-23T00:46:03;46.50;;;24.00;;
27543;SDS011;17996;51.056;3.656;2023-05-23T00:48:29;50.45;;;22.50;;
27543;SDS011;17996;51.056;3.656;2023-05-23T00:50:55;49.55;;;21.95;;
27543;SDS011;17996;51.056;3.656;2023-05-23T00:53:21;43.50;;;21.02;;
27543;SDS011;17996;51.056;3.656;2023-05-23T00:55:48;38.88;;;20.77;;
27543;SDS011;17996;51.056;3.656;2023-05-23T00:58:14;37.35;;;19.58;;
27543;SDS011;17996;51.056;3.656;2023-05-23T01:00:41;38.20;;;19.15;;
27543;SDS011;17996;51.056;3.656;2023-05-23T01:03:09;34.58;;;18.63;;
27543;SDS011;17996;51.056;3.656;2023-05-23T01:05:43;35.25;;;20.50;;
27543;SDS011;17996;51.056;3.656;2023-05-23T01:08:09;42.78;;;19.58;;
27543;SDS011;17996;51.056;3.656;2023-05-23T01:10:35;45.30;;;21.17;;
27543;SDS011;17996;51.056;3.656;2023-05-23T01:13:21;44.20;;;20.85;;
27543;SDS011;17996;51.056;3.656;2023-05-23T01:16:37;43.75;;;21.75;;
27543;SDS011;17996;51.056;3.656;2023-05-23T01:21:22;49.65;;;23.40;;
27543;SDS011;17996;51.056;3.656;2023-05-23T01:26:31;45.63;;;23.13;;
27543;SDS011;17996;51.056;3.656;2023-05-23T01:29:24;47.15;;;21.98;;
27543;SDS011;17996;51.056;3.656;2023-05-23T01:31:53;52.58;;;24.65;;
27543;SDS011;17996;51.056;3.656;2023-05-23T01:36:54;53.00;;;23.63;;
27543;SDS011;17996;51.056;3.656;2023-05-23T01:39:20;48.15;;;23.30;;
27543;SDS011;17996;51.056;3.656;2023-05-23T01:41:47;48.45;;;23.20;;
27543;SDS011;17996;51.056;3.656;2023-05-23T01:44:15;47.05;;;24.45;;
27543;SDS011;17996;51.056;3.656;2023-05-23T01:46:41;49.83;;;24.30;;
27543;SDS011;17996;51.056;3.656;2023-05-23T01:49:08;42.45;;;21.50;;
27543;SDS011;17996;51.056;3.656;2023-05-23T01:51:37;43.13;;;21.65;;
27543;SDS011;17996;51.056;3.656;2023-05-23T01:54:10;45.47;;;21.63;;
27543;SDS011;17996;51.056;3.656;2023-05-23T01:56:38;47.50;;;21.25;;
27543;SDS011;17996;51.056;3.656;2023-05-23T01:59:05;51.53;;;22.27;;
27543;SDS011;17996;51.056;3.656;2023-05-23T02:01:34;53.35;;;22.85;;
27543;SDS011;17996;51.056;3.656;2023-05-23T02:04:01;48.45;;;23.80;;
27543;SDS011;17996;51.056;3.656;2023-05-23T02:06:26;51.13;;;22.33;;
27543;SDS011;17996;51.056;3.656;2023-05-23T02:08:52;47.88;;;23.15;;
27543;SDS011;17996;51.056;3.656;2023-05-23T02:11:18;52.33;;;24.38;;
27543;SDS011;17996;51.056;3.656;2023-05-23T02:13:43;57.85;;;25.23;;
27543;SDS011;17996;51.056;3.656;2023-05-23T02:16:09;54.35;;;25.10;;
27543;SDS011;17996;51.056;3.656;2023-05-23T02:18:35;53.42;;;24.67;;
27543;SDS011;17996;51.056;3.656;2023-05-23T02:21:03;62.85;;;25.45;;
27543;SDS011;17996;51.056;3.656;2023-05-23T02:23:29;54.50;;;25.42;;
27543;SDS011;17996;51.056;3.656;2023-05-23T02:25:55;51.20;;;25.52;;
27543;SDS011;17996;51.056;3.656;2023-05-23T02:28:21;48.15;;;25.15;;
27543;SDS011;17996;51.056;3.656;2023-05-23T02:30:46;55.47;;;27.40;;
27543;SDS011;17996;51.056;3.656;2023-05-23T02:33:12;67.68;;;27.70;;
27543;SDS011;17996;51.056;3.656;2023-05-23T02:35:38;61.92;;;26.00;;
27543;SDS011;17996;51.056;3.656;2023-05-23T02:38:04;68.75;;;27.17;;
27543;SDS011;17996;51.056;3.656;2023-05-23T02:40:29;69.85;;;29.15;;
27543;SDS011;17996;51.056;3.656;2023-05-23T02:42:55;55.42;;;25.58;;
27543;SDS011;17996;51.056;3.656;2023-05-23T02:45:21;62.33;;;26.25;;
27543;SDS011;17996;51.056;3.656;2023-05-23T02:47:48;62.38;;;26.65;;
27543;SDS011;17996;51.056;3.656;2023-05-23T02:50:13;56.72;;;23.23;;
27543;SDS011;17996;51.056;3.656;2023-05-23T02:52:40;58.92;;;22.52;;
27543;SDS011;17996;51.056;3.656;2023-05-23T02:55:06;59.08;;;19.48;;
27543;SDS011;17996;51.056;3.656;2023-05-23T02:57:33;37.85;;;18.58;;
27543;SDS011;17996;51.056;3.656;2023-05-23T02:59:58;55.63;;;19.48;;
27543;SDS011;17996;51.056;3.656;2023-05-23T03:02:24;46.90;;;17.95;;
27543;SDS011;17996;51.056;3.656;2023-05-23T03:04:50;56.50;;;19.48;;
27543;SDS011;17996;51.056;3.656;2023-05-23T03:07:16;42.53;;;18.60;;
27543;SDS011;17996;51.056;3.656;2023-05-23T03:09:42;45.80;;;18.38;;
27543;SDS011;17996;51.056;3.656;2023-05-23T03:12:08;50.05;;;19.35;;
27543;SDS011;17996;51.056;3.656;2023-05-23T03:14:33;61.97;;;18.25;;
27543;SDS011;17996;51.056;3.656;2023-05-23T03:16:59;46.85;;;19.05;;
27543;SDS011;17996;51.056;3.656;2023-05-23T03:19:27;63.03;;;19.73;;
27543;SDS011;17996;51.056;3.656;2023-05-23T03:21:53;48.38;;;18.60;;
27543;SDS011;17996;51.056;3.656;2023-05-23T03:24:19;46.95;;;19.13;;
27543;SDS011;17996;51.056;3.656;2023-05-23T03:26:44;60.90;;;18.35;;
27543;SDS011;17996;51.056;3.656;2023-05-23T03:29:10;57.70;;;18.75;;
27543;SDS011;17996;51.056;3.656;2023-05-23T03:31:36;62.80;;;20.90;;
27543;SDS011;17996;51.056;3.656;2023-05-23T03:34:03;50.97;;;19.45;;
27543;SDS011;17996;51.056;3.656;2023-05-23T03:36:32;44.30;;;17.77;;
27543;SDS011;17996;51.056;3.656;2023-05-23T03:38:58;51.95;;;20.00;;
27543;SDS011;17996;51.056;3.656;2023-05-23T03:41:24;56.17;;;18.75;;
27543;SDS011;17996;51.056;3.656;2023-05-23T03:43:50;57.67;;;18.63;;
27543;SDS011;17996;51.056;3.656;2023-05-23T03:46:16;47.85;;;17.88;;
27543;SDS011;17996;51.056;3.656;2023-05-23T03:48:42;50.17;;;18.33;;
27543;SDS011;17996;51.056;3.656;2023-05-23T03:51:08;46.17;;;17.45;;
27543;SDS011;17996;51.056;3.656;2023-05-23T03:53:33;51.03;;;17.10;;
27543;SDS011;17996;51.056;3.656;2023-05-23T03:55:59;47.13;;;17.27;;
27543;SDS011;17996;51.056;3.656;2023-05-23T03:58:25;39.67;;;15.77;;
27543;SDS011;17996;51.056;3.656;2023-05-23T04:00:50;48.92;;;16.88;;
27543;SDS011;17996;51.056;3.656;2023-05-23T04:03:17;48.50;;;17.95;;
27543;SDS011;17996;51.056;3.656;2023-05-23T04:05:43;48.88;;;18.77;;
27543;SDS011;17996;51.056;3.656;2023-05-23T04:08:09;46.17;;;16.83;;
27543;SDS011;17996;51.056;3.656;2023-05-23T04:10:35;58.05;;;19.30;;
27543;SDS011;17996;51.056;3.656;2023-05-23T04:13:01;52.10;;;18.88;;
27543;SDS011;17996;51.056;3.656;2023-05-23T04:15:26;47.05;;;18.15;;
27543;SDS011;17996;51.056;3.656;2023-05-23T04:17:52;50.92;;;18.98;;
27543;SDS011;17996;51.056;3.656;2023-05-23T04:20:18;53.47;;;17.50;;
27543;SDS011;17996;51.056;3.656;2023-05-23T04:22:44;53.75;;;17.50;;
27543;SDS011;17996;51.056;3.656;2023-05-23T04:25:10;66.45;;;16.90;;
27543;SDS011;17996;51.056;3.656;2023-05-23T04:27:36;42.72;;;15.77;;
27543;SDS011;17996;51.056;3.656;2023-05-23T04:30:04;54.17;;;17.92;;
27543;SDS011;17996;51.056;3.656;2023-05-23T04:32:33;52.83;;;16.73;;
27543;SDS011;17996;51.056;3.656;2023-05-23T04:34:59;59.55;;;15.65;;
27543;SDS011;17996;51.056;3.656;2023-05-23T04:37:26;42.97;;;13.82;;
27543;SDS011;17996;51.056;3.656;2023-05-23T04:39:52;51.58;;;14.50;;
27543;SDS011;17996;51.056;3.656;2023-05-23T04:42:18;44.60;;;14.88;;
27543;SDS011;17996;51.056;3.656;2023-05-23T04:44:48;48.65;;;13.85;;
27543;SDS011;17996;51.056;3.656;2023-05-23T04:47:15;48.00;;;14.45;;
27543;SDS011;17996;51.056;3.656;2023-05-23T04:49:41;49.03;;;16.10;;
27543;SDS011;17996;51.056;3.656;2023-05-23T04:52:07;52.78;;;15.38;;
27543;SDS011;17996;51.056;3.656;2023-05-23T04:54:33;50.47;;;15.30;;
27543;SDS011;17996;51.056;3.656;2023-05-23T04:56:59;61.13;;;15.70;;
27543;SDS011;17996;51.056;3.656;2023-05-23T04:59:25;49.92;;;15.23;;
27543;SDS011;17996;51.056;3.656;2023-05-23T05:01:50;42.75;;;15.43;;
27543;SDS011;17996;51.056;3.656;2023-05-23T05:04:16;43.85;;;14.75;;
27543;SDS011;17996;51.056;3.656;2023-05-23T05:06:42;48.55;;;15.50;;
27543;SDS011;17996;51.056;3.656;2023-05-23T05:09:08;50.22;;;16.98;;
27543;SDS011;17996;51.056;3.656;2023-05-23T05:11:33;42.15;;;15.63;;
27543;SDS011;17996;51.056;3.656;2023-05-23T05:13:59;41.40;;;15.75;;
27543;SDS011;17996;51.056;3.656;2023-05-23T05:16:25;34.95;;;14.13;;
27543;SDS011;17996;51.056;3.656;2023-05-23T05:18:51;33.83;;;13.80;;
27543;SDS011;17996;51.056;3.656;2023-05-23T05:21:16;38.03;;;13.07;;
27543;SDS011;17996;51.056;3.656;2023-05-23T05:23:42;27.27;;;11.95;;
27543;SDS011;17996;51.056;3.656;2023-05-23T05:26:08;31.75;;;10.80;;
27543;SDS011;17996;51.056;3.656;2023-05-23T05:28:33;33.67;;;12.02;;
27543;SDS011;17996;51.056;3.656;2023-05-23T05:30:59;37.25;;;13.88;;
27543;SDS011;17996;51.056;3.656;2023-05-23T05:33:29;42.55;;;12.07;;
27543;SDS011;17996;51.056;3.656;2023-05-23T05:36:00;30.10;;;11.85;;
27543;SDS011;17996;51.056;3.656;2023-05-23T05:38:30;37.60;;;12.68;;
27543;SDS011;17996;51.056;3.656;2023-05-23T05:40:56;32.72;;;11.85;;
27543;SDS011;17996;51.056;3.656;2023-05-23T05:43:22;37.28;;;12.65;;
27543;SDS011;17996;51.056;3.656;2023-05-23T05:45:48;31.08;;;12.30;;
27543;SDS011;17996;51.056;3.656;2023-05-23T05:48:13;28.67;;;11.75;;
27543;SDS011;17996;51.056;3.656;2023-05-23T05:50:41;32.58;;;12.30;;
27543;SDS011;17996;51.056;3.656;2023-05-23T05:53:09;34.60;;;12.27;;
27543;SDS011;17996;51.056;3.656;2023-05-23T05:55:36;41.88;;;12.50;;
27543;SDS011;17996;51.056;3.656;2023-05-23T05:58:02;33.60;;;11.18;;
27543;SDS011;17996;51.056;3.656;2023-05-23T06:00:28;38.85;;;11.60;;
27543;SDS011;17996;51.056;3.656;2023-05-23T06:02:54;45.47;;;12.48;;
27543;SDS011;17996;51.056;3.656;2023-05-23T06:05:23;40.75;;;12.38;;
27543;SDS011;17996;51.056;3.656;2023-05-23T06:07:49;40.80;;;12.13;;
27543;SDS011;17996;51.056;3.656;2023-05-23T06:10:15;36.33;;;12.43;;
27543;SDS011;17996;51.056;3.656;2023-05-23T06:12:41;33.05;;;11.77;;
27543;SDS011;17996;51.056;3.656;2023-05-23T06:15:08;33.10;;;12.48;;
27543;SDS011;17996;51.056;3.656;2023-05-23T06:17:35;30.45;;;12.07;;
27543;SDS011;17996;51.056;3.656;2023-05-23T06:20:01;32.10;;;12.13;;
27543;SDS011;17996;51.056;3.656;2023-05-23T06:22:29;29.75;;;12.43;;
27543;SDS011;17996;51.056;3.656;2023-05-23T06:24:54;33.92;;;12.55;;
27543;SDS011;17996;51.056;3.656;2023-05-23T06:27:20;30.92;;;11.30;;
27543;SDS011;17996;51.056;3.656;2023-05-23T06:29:46;32.25;;;11.55;;
27543;SDS011;17996;51.056;3.656;2023-05-23T06:32:11;34.22;;;12.32;;
27543;SDS011;17996;51.056;3.656;2023-05-23T06:34:37;26.45;;;11.27;;
27543;SDS011;17996;51.056;3.656;2023-05-23T06:37:03;36.58;;;12.77;;
27543;SDS011;17996;51.056;3.656;2023-05-23T06:39:29;39.83;;;11.60;;
27543;SDS011;17996;51.056;3.656;2023-05-23T06:41:54;34.10;;;12.85;;
27543;SDS011;17996;51.056;3.656;2023-05-23T06:44:20;41.22;;;12.48;;
27543;SDS011;17996;51.056;3.656;2023-05-23T06:46:46;31.35;;;11.32;;
27543;SDS011;17996;51.056;3.656;2023-05-23T06:49:12;33.15;;;11.45;;
27543;SDS011;17996;51.056;3.656;2023-05-23T06:51:38;33.75;;;11.65;;
27543;SDS011;17996;51.056;3.656;2023-05-23T06:54:04;30.15;;;12.52;;
27543;SDS011;17996;51.056;3.656;2023-05-23T06:56:30;36.13;;;12.38;;
27543;SDS011;17996;51.056;3.656;2023-05-23T06:58:56;32.58;;;11.57;;
27543;SDS011;17996;51.056;3.656;2023-05-23T07:01:22;32.13;;;11.70;;
27543;SDS011;17996;51.056;3.656;2023-05-23T07:03:47;35.33;;;11.70;;
27543;SDS011;17996;51.056;3.656;2023-05-23T07:06:13;28.52;;;11.43;;
27543;SDS011;17996;51.056;3.656;2023-05-23T07:08:39;29.35;;;11.55;;
27543;SDS011;17996;51.056;3.656;2023-05-23T07:11:05;29.42;;;10.82;;
27543;SDS011;17996;51.056;3.656;2023-05-23T07:13:30;29.48;;;11.75;;
27543;SDS011;17996;51.056;3.656;2023-05-23T07:15:56;25.27;;;12.15;;
27543;SDS011;17996;51.056;3.656;2023-05-23T07:18:22;31.00;;;11.90;;
27543;SDS011;17996;51.056;3.656;2023-05-23T07:20:48;26.10;;;10.95;;
27543;SDS011;17996;51.056;3.656;2023-05-23T07:23:14;33.22;;;10.68;;
27543;SDS011;17996;51.056;3.656;2023-05-23T07:25:40;34.67;;;11.90;;
27543;SDS011;17996;51.056;3.656;2023-05-23T07:28:07;22.45;;;10.73;;
27543;SDS011;17996;51.056;3.656;2023-05-23T07:30:33;22.67;;;9.68;;
27543;SDS011;17996;51.056;3.656;2023-05-23T07:32:59;28.35;;;10.45;;
27543;SDS011;17996;51.056;3.656;2023-05-23T07:35:25;20.17;;;9.82;;
27543;SDS011;17996;51.056;3.656;2023-05-23T07:37:54;25.40;;;9.35;;
27543;SDS011;17996;51.056;3.656;2023-05-23T07:42:48;25.63;;;8.82;;
27543;SDS011;17996;51.056;3.656;2023-05-23T07:45:14;21.45;;;9.35;;
27543;SDS011;17996;51.056;3.656;2023-05-23T07:47:40;25.70;;;8.20;;
27543;SDS011;17996;51.056;3.656;2023-05-23T07:50:06;26.45;;;8.70;;
27543;SDS011;17996;51.056;3.656;2023-05-23T07:52:32;23.63;;;9.35;;
27543;SDS011;17996;51.056;3.656;2023-05-23T07:54:58;23.85;;;7.72;;
27543;SDS011;17996;51.056;3.656;2023-05-23T07:57:24;23.30;;;7.80;;
27543;SDS011;17996;51.056;3.656;2023-05-23T07:59:51;18.45;;;7.00;;
27543;SDS011;17996;51.056;3.656;2023-05-23T08:02:17;18.38;;;7.78;;
27543;SDS011;17996;51.056;3.656;2023-05-23T08:04:49;22.58;;;7.38;;
27543;SDS011;17996;51.056;3.656;2023-05-23T08:07:15;29.55;;;7.80;;
27543;SDS011;17996;51.056;3.656;2023-05-23T08:09:41;20.20;;;6.30;;
27543;SDS011;17996;51.056;3.656;2023-05-23T08:12:07;20.48;;;5.50;;
27543;SDS011;17996;51.056;3.656;2023-05-23T08:14:34;16.27;;;5.20;;
27543;SDS011;17996;51.056;3.656;2023-05-23T08:17:00;20.88;;;5.32;;
27543;SDS011;17996;51.056;3.656;2023-05-23T08:19:26;17.83;;;5.85;;
27543;SDS011;17996;51.056;3.656;2023-05-23T08:21:52;21.30;;;6.40;;
27543;SDS011;17996;51.056;3.656;2023-05-23T08:24:18;15.68;;;5.72;;
27543;SDS011;17996;51.056;3.656;2023-05-23T08:26:45;18.95;;;6.35;;
27543;SDS011;17996;51.056;3.656;2023-05-23T08:29:11;14.38;;;5.65;;
27543;SDS011;17996;51.056;3.656;2023-05-23T08:31:38;19.20;;;6.13;;
27543;SDS011;17996;51.056;3.656;2023-05-23T08:34:03;16.63;;;6.32;;
27543;SDS011;17996;51.056;3.656;2023-05-23T08:36:29;18.05;;;6.13;;
27543;SDS011;17996;51.056;3.656;2023-05-23T08:38:58;20.40;;;6.30;;
27543;SDS011;17996;51.056;3.656;2023-05-23T08:41:24;16.88;;;6.10;;
27543;SDS011;17996;51.056;3.656;2023-05-23T08:43:51;13.07;;;5.13;;
27543;SDS011;17996;51.056;3.656;2023-05-23T08:46:19;22.40;;;4.72;;
27543;SDS011;17996;51.056;3.656;2023-05-23T08:48:50;17.52;;;5.05;;
27543;SDS011;17996;51.056;3.656;2023-05-23T08:51:18;18.67;;;4.82;;
27543;SDS011;17996;51.056;3.656;2023-05-23T08:53:46;14.55;;;4.47;;
27543;SDS011;17996;51.056;3.656;2023-05-23T08:56:13;15.25;;;4.20;;
27543;SDS011;17996;51.056;3.656;2023-05-23T08:58:40;10.10;;;3.88;;
27543;SDS011;17996;51.056;3.656;2023-05-23T09:01:07;21.92;;;4.78;;
27543;SDS011;17996;51.056;3.656;2023-05-23T09:03:34;17.83;;;4.47;;
27543;SDS011;17996;51.056;3.656;2023-05-23T09:06:07;17.10;;;4.35;;
27543;SDS011;17996;51.056;3.656;2023-05-23T09:08:34;22.83;;;3.78;;
27543;SDS011;17996;51.056;3.656;2023-05-23T09:11:03;18.48;;;3.92;;
27543;SDS011;17996;51.056;3.656;2023-05-23T09:13:30;29.38;;;4.03;;
27543;SDS011;17996;51.056;3.656;2023-05-23T09:16:00;19.17;;;4.97;;
27543;SDS011;17996;51.056;3.656;2023-05-23T09:18:35;26.15;;;4.57;;
27543;SDS011;17996;51.056;3.656;2023-05-23T09:21:03;21.60;;;5.03;;
27543;SDS011;17996;51.056;3.656;2023-05-23T09:23:32;19.70;;;4.97;;
27543;SDS011;17996;51.056;3.656;2023-05-23T09:26:05;27.02;;;6.15;;
27543;SDS011;17996;51.056;3.656;2023-05-23T09:28:32;22.92;;;6.47;;
27543;SDS011;17996;51.056;3.656;2023-05-23T09:31:03;21.58;;;5.05;;
27543;SDS011;17996;51.056;3.656;2023-05-23T09:33:47;25.33;;;6.13;;
27543;SDS011;17996;51.056;3.656;2023-05-23T09:36:17;29.17;;;5.93;;
27543;SDS011;17996;51.056;3.656;2023-05-23T09:38:45;24.27;;;5.25;;
27543;SDS011;17996;51.056;3.656;2023-05-23T09:41:12;34.53;;;6.00;;
27543;SDS011;17996;51.056;3.656;2023-05-23T09:43:39;33.40;;;6.22;;
27543;SDS011;17996;51.056;3.656;2023-05-23T09:46:13;26.40;;;5.13;;
27543;SDS011;17996;51.056;3.656;2023-05-23T09:48:39;28.00;;;6.10;;
27543;SDS011;17996;51.056;3.656;2023-05-23T09:51:08;31.15;;;6.68;;
27543;SDS011;17996;51.056;3.656;2023-05-23T09:53:34;28.83;;;5.72;;
27543;SDS011;17996;51.056;3.656;2023-05-23T09:56:03;25.05;;;5.55;;
27543;SDS011;17996;51.056;3.656;2023-05-23T09:58:30;26.52;;;5.85;;
27543;SDS011;17996;51.056;3.656;2023-05-23T10:00:58;31.63;;;5.53;;
27543;SDS011;17996;51.056;3.656;2023-05-23T10:06:06;29.08;;;5.97;;
27543;SDS011;17996;51.056;3.656;2023-05-23T10:08:42;26.88;;;5.97;;
27543;SDS011;17996;51.056;3.656;2023-05-23T10:13:45;18.90;;;5.00;;
27543;SDS011;17996;51.056;3.656;2023-05-23T10:16:21;20.48;;;5.60;;
27543;SDS011;17996;51.056;3.656;2023-05-23T10:19:06;26.02;;;5.80;;
27543;SDS011;17996;51.056;3.656;2023-05-23T10:21:43;27.35;;;6.60;;
27543;SDS011;17996;51.056;3.656;2023-05-23T10:24:13;27.42;;;5.65;;
27543;SDS011;17996;51.056;3.656;2023-05-23T10:26:42;25.77;;;5.60;;
27543;SDS011;17996;51.056;3.656;2023-05-23T10:29:09;23.80;;;4.55;;
27543;SDS011;17996;51.056;3.656;2023-05-23T10:31:34;26.13;;;4.85;;
27543;SDS011;17996;51.056;3.656;2023-05-23T10:34:07;30.60;;;5.95;;
27543;SDS011;17996;51.056;3.656;2023-05-23T10:42:02;26.02;;;6.47;;
27543;SDS011;17996;51.056;3.656;2023-05-23T10:44:34;32.72;;;6.00;;
27543;SDS011;17996;51.056;3.656;2023-05-23T10:47:02;27.00;;;5.13;;
27543;SDS011;17996;51.056;3.656;2023-05-23T10:52:04;28.30;;;6.03;;
27543;SDS011;17996;51.056;3.656;2023-05-23T10:54:44;28.42;;;6.72;;
27543;SDS011;17996;51.056;3.656;2023-05-23T10:57:18;29.13;;;5.53;;
27543;SDS011;17996;51.056;3.656;2023-05-23T10:59:45;22.10;;;5.97;;
27543;SDS011;17996;51.056;3.656;2023-05-23T11:02:14;30.95;;;6.25;;
27543;SDS011;17996;51.056;3.656;2023-05-23T11:04:42;24.30;;;5.43;;
27543;SDS011;17996;51.056;3.656;2023-05-23T11:10:09;23.88;;;5.72;;
27543;SDS011;17996;51.056;3.656;2023-05-23T11:12:37;32.92;;;6.15;;
27543;SDS011;17996;51.056;3.656;2023-05-23T11:17:51;36.58;;;6.07;;
27543;SDS011;17996;51.056;3.656;2023-05-23T11:20:18;26.40;;;5.60;;
27543;SDS011;17996;51.056;3.656;2023-05-23T11:22:54;21.35;;;5.38;;
27543;SDS011;17996;51.056;3.656;2023-05-23T11:28:09;22.92;;;5.03;;
27543;SDS011;17996;51.056;3.656;2023-05-23T11:30:36;23.15;;;5.75;;
27543;SDS011;17996;51.056;3.656;2023-05-23T11:33:09;26.92;;;5.55;;
27543;SDS011;17996;51.056;3.656;2023-05-23T11:35:42;24.75;;;5.50;;
27543;SDS011;17996;51.056;3.656;2023-05-23T11:38:09;27.05;;;5.20;;
27543;SDS011;17996;51.056;3.656;2023-05-23T11:40:36;25.90;;;5.47;;
27543;SDS011;17996;51.056;3.656;2023-05-23T11:43:06;26.42;;;5.88;;
27543;SDS011;17996;51.056;3.656;2023-05-23T11:45:39;25.33;;;4.97;;
27543;SDS011;17996;51.056;3.656;2023-05-23T11:48:08;19.08;;;4.80;;
27543;SDS011;17996;51.056;3.656;2023-05-23T11:50:43;20.77;;;4.78;;
27543;SDS011;17996;51.056;3.656;2023-05-23T11:53:13;20.85;;;4.95;;
27543;SDS011;17996;51.056;3.656;2023-05-23T11:55:57;26.50;;;5.50;;
27543;SDS011;17996;51.056;3.656;2023-05-23T11:58:27;22.30;;;5.82;;
27543;SDS011;17996;51.056;3.656;2023-05-23T12:00:58;22.58;;;5.25;;
27543;SDS011;17996;51.056;3.656;2023-05-23T12:03:24;20.70;;;4.70;;
27543;SDS011;17996;51.056;3.656;2023-05-23T12:05:50;23.38;;;5.43;;
27543;SDS011;17996;51.056;3.656;2023-05-23T12:08:16;23.90;;;5.13;;
27543;SDS011;17996;51.056;3.656;2023-05-23T12:10:51;18.13;;;5.78;;
27543;SDS011;17996;51.056;3.656;2023-05-23T12:13:27;25.70;;;5.07;;
27543;SDS011;17996;51.056;3.656;2023-05-23T12:15:56;24.10;;;4.85;;
27543;SDS011;17996;51.056;3.656;2023-05-23T12:18:29;26.35;;;4.95;;
27543;SDS011;17996;51.056;3.656;2023-05-23T12:20:59;22.95;;;4.35;;
27543;SDS011;17996;51.056;3.656;2023-05-23T12:23:30;23.58;;;6.00;;
27543;SDS011;17996;51.056;3.656;2023-05-23T12:25:56;28.30;;;4.88;;
27543;SDS011;17996;51.056;3.656;2023-05-23T12:28:38;31.17;;;4.75;;
27543;SDS011;17996;51.056;3.656;2023-05-23T12:31:25;21.45;;;4.60;;
27543;SDS011;17996;51.056;3.656;2023-05-23T12:33:51;20.52;;;5.47;;
27543;SDS011;17996;51.056;3.656;2023-05-23T12:36:21;20.35;;;4.43;;
27543;SDS011;17996;51.056;3.656;2023-05-23T12:38:51;23.50;;;4.80;;
27543;SDS011;17996;51.056;3.656;2023-05-23T12:41:17;18.17;;;4.63;;
27543;SDS011;17996;51.056;3.656;2023-05-23T12:43:50;18.33;;;4.68;;
27543;SDS011;17996;51.056;3.656;2023-05-23T12:46:17;23.80;;;4.43;;
27543;SDS011;17996;51.056;3.656;2023-05-23T12:48:50;22.13;;;4.40;;
27543;SDS011;17996;51.056;3.656;2023-05-23T12:51:17;22.38;;;4.20;;
27543;SDS011;17996;51.056;3.656;2023-05-23T12:53:43;21.85;;;4.95;;
27543;SDS011;17996;51.056;3.656;2023-05-23T12:56:09;20.95;;;4.60;;
27543;SDS011;17996;51.056;3.656;2023-05-23T12:58:35;21.65;;;5.10;;
27543;SDS011;17996;51.056;3.656;2023-05-23T13:01:01;29.30;;;4.75;;
27543;SDS011;17996;51.056;3.656;2023-05-23T13:03:27;22.80;;;4.75;;
27543;SDS011;17996;51.056;3.656;2023-05-23T13:05:55;17.85;;;4.05;;
27543;SDS011;17996;51.056;3.656;2023-05-23T13:08:21;23.02;;;5.03;;
27543;SDS011;17996;51.056;3.656;2023-05-23T13:10:47;19.60;;;4.70;;
27543;SDS011;17996;51.056;3.656;2023-05-23T13:13:13;16.23;;;4.03;;
27543;SDS011;17996;51.056;3.656;2023-05-23T13:15:39;19.33;;;4.78;;
27543;SDS011;17996;51.056;3.656;2023-05-23T13:18:05;27.90;;;5.78;;
27543;SDS011;17996;51.056;3.656;2023-05-23T13:20:30;22.00;;;5.38;;
27543;SDS011;17996;51.056;3.656;2023-05-23T13:22:56;24.10;;;4.50;;
27543;SDS011;17996;51.056;3.656;2023-05-23T13:25:22;31.08;;;6.10;;
27543;SDS011;17996;51.056;3.656;2023-05-23T13:27:48;22.58;;;4.35;;
27543;SDS011;17996;51.056;3.656;2023-05-23T13:30:14;22.33;;;4.65;;
27543;SDS011;17996;51.056;3.656;2023-05-23T13:32:40;19.58;;;5.07;;
27543;SDS011;17996;51.056;3.656;2023-05-23T13:35:06;19.90;;;4.88;;
27543;SDS011;17996;51.056;3.656;2023-05-23T13:37:32;25.80;;;4.82;;
27543;SDS011;17996;51.056;3.656;2023-05-23T13:40:00;21.15;;;4.55;;
27543;SDS011;17996;51.056;3.656;2023-05-23T13:42:27;20.50;;;5.65;;
27543;SDS011;17996;51.056;3.656;2023-05-23T13:44:53;19.65;;;5.00;;
27543;SDS011;17996;51.056;3.656;2023-05-23T13:47:19;22.23;;;4.38;;
27543;SDS011;17996;51.056;3.656;2023-05-23T13:49:44;21.98;;;4.85;;
27543;SDS011;17996;51.056;3.656;2023-05-23T13:52:10;23.75;;;4.85;;
27543;SDS011;17996;51.056;3.656;2023-05-23T13:54:37;18.02;;;4.32;;
27543;SDS011;17996;51.056;3.656;2023-05-23T13:57:03;32.03;;;5.28;;
27543;SDS011;17996;51.056;3.656;2023-05-23T13:59:29;21.27;;;4.68;;
27543;SDS011;17996;51.056;3.656;2023-05-23T14:01:55;18.00;;;4.90;;
27543;SDS011;17996;51.056;3.656;2023-05-23T14:04:21;20.88;;;5.57;;
27543;SDS011;17996;51.056;3.656;2023-05-23T14:06:47;19.25;;;4.82;;
27543;SDS011;17996;51.056;3.656;2023-05-23T14:09:13;22.48;;;4.68;;
27543;SDS011;17996;51.056;3.656;2023-05-23T14:11:39;25.08;;;4.63;;
27543;SDS011;17996;51.056;3.656;2023-05-23T14:14:05;20.85;;;4.85;;
27543;SDS011;17996;51.056;3.656;2023-05-23T14:16:30;23.42;;;5.18;;
27543;SDS011;17996;51.056;3.656;2023-05-23T14:18:56;17.25;;;4.32;;
27543;SDS011;17996;51.056;3.656;2023-05-23T14:21:22;21.17;;;4.32;;
27543;SDS011;17996;51.056;3.656;2023-05-23T14:23:48;17.52;;;3.78;;
27543;SDS011;17996;51.056;3.656;2023-05-23T14:26:14;21.60;;;4.60;;
27543;SDS011;17996;51.056;3.656;2023-05-23T14:28:39;18.75;;;4.68;;
27543;SDS011;17996;51.056;3.656;2023-05-23T14:31:05;18.55;;;5.20;;
27543;SDS011;17996;51.056;3.656;2023-05-23T14:33:31;31.60;;;5.00;;
27543;SDS011;17996;51.056;3.656;2023-05-23T14:35:57;14.63;;;3.70;;
27543;SDS011;17996;51.056;3.656;2023-05-23T14:38:23;24.00;;;3.75;;
27543;SDS011;17996;51.056;3.656;2023-05-23T14:40:49;19.75;;;4.63;;
27543;SDS011;17996;51.056;3.656;2023-05-23T14:43:15;21.55;;;4.00;;
27543;SDS011;17996;51.056;3.656;2023-05-23T14:45:40;18.92;;;4.93;;
27543;SDS011;17996;51.056;3.656;2023-05-23T14:48:06;19.92;;;4.72;;
27543;SDS011;17996;51.056;3.656;2023-05-23T14:50:33;16.67;;;4.22;;
27543;SDS011;17996;51.056;3.656;2023-05-23T14:52:59;25.83;;;4.45;;
27543;SDS011;17996;51.056;3.656;2023-05-23T14:55:24;18.80;;;4.18;;
27543;SDS011;17996;51.056;3.656;2023-05-23T14:57:50;16.02;;;3.75;;
27543;SDS011;17996;51.056;3.656;2023-05-23T15:00:16;20.80;;;4.43;;
27543;SDS011;17996;51.056;3.656;2023-05-23T15:02:43;21.25;;;3.95;;